createdAt,value
2023-03-25T00:00:17.581Z,95236.72
2023-03-25T00:03:04.609Z,95241.16
2023-03-25T00:05:50.519Z,95229.25
2023-03-25T00:08:37.523Z,95234.66
2023-03-25T00:11:23.689Z,95236.09
2023-03-25T00:14:12.305Z,95234.03
2023-03-25T00:16:58.979Z,95227.34
2023-03-25T00:19:45.065Z,95229.38
2023-03-25T00:22:30.978Z,95229.38
2023-03-25T00:25:19.214Z,95230.97
2023-03-25T00:28:05.437Z,95223.19
2023-03-25T00:30:53.545Z,95223.97
2023-03-25T00:33:41.849Z,95223.97
2023-03-25T00:36:27.684Z,95222.38
2023-03-25T00:39:13.786Z,95215.88
2023-03-25T00:42:02.031Z,95213.16
2023-03-25T00:44:50.795Z,95206.28
2023-03-25T00:47:36.969Z,95220.59
2023-03-25T00:50:42.076Z,95229.31
2023-03-25T00:53:28.109Z,95224.41
2023-03-25T00:56:14.526Z,95223.28
2023-03-25T00:59:00.436Z,95216.59
2023-03-25T01:01:48.882Z,95226.00
2023-03-25T01:04:35.475Z,95220.75
2023-03-25T01:07:24.390Z,95213.75
2023-03-25T01:10:11.696Z,95214.88
2023-03-25T01:12:57.787Z,95208.28
2023-03-25T01:15:43.500Z,95212.75
2023-03-25T01:18:29.460Z,95207.63
2023-03-25T01:21:15.905Z,95211.06
2023-03-25T01:24:02.382Z,95214.84
2023-03-25T01:26:48.599Z,95213.53
2023-03-25T01:29:34.244Z,95207.47
2023-03-25T01:32:19.825Z,95216.16
2023-03-25T01:35:06.496Z,95211.38
2023-03-25T01:37:54.779Z,95207.09
2023-03-25T01:40:40.876Z,95201.19
2023-03-25T01:43:27.081Z,95191.50
2023-03-25T01:46:17.303Z,95193.75
2023-03-25T01:49:08.400Z,95190.56
2023-03-25T01:51:58.652Z,95196.13
2023-03-25T01:54:45.787Z,95184.78
2023-03-25T01:57:32.477Z,95181.44
2023-03-25T02:00:27.383Z,95176.50
2023-03-25T02:03:21.773Z,95175.81
2023-03-25T02:06:16.223Z,95170.84
2023-03-25T02:09:05.279Z,95165.31
2023-03-25T02:11:54.844Z,95161.53
2023-03-25T02:14:41.356Z,95164.72
2023-03-25T02:18:01.484Z,95165.97
2023-03-25T02:21:03.967Z,95155.16
2023-03-25T02:23:58.417Z,95152.47
2023-03-25T02:27:27.671Z,95154.78
2023-03-25T02:30:38.958Z,95151.00
2023-03-25T02:33:41.623Z,95144.31
2023-03-25T02:36:34.650Z,95148.44
2023-03-25T02:39:49.595Z,95145.66
2023-03-25T02:42:46.013Z,95145.50
2023-03-25T02:45:34.284Z,95154.69
2023-03-25T02:48:33.340Z,95154.00
2023-03-25T02:51:24.792Z,95154.31
2023-03-25T02:54:13.342Z,95167.00
2023-03-25T02:57:00.714Z,95166.34
2023-03-25T02:59:49.160Z,95170.13
2023-03-25T03:02:35.229Z,95155.81
2023-03-25T03:05:24.533Z,95169.88
2023-03-25T03:08:29.630Z,95167.75
2023-03-25T03:11:17.650Z,95169.38
2023-03-25T03:14:30.991Z,95164.19
2023-03-25T03:17:51.218Z,95164.69
2023-03-25T03:21:08.449Z,95173.38
2023-03-25T03:23:57.714Z,95169.22
2023-03-25T03:27:00.725Z,95169.81
2023-03-25T03:29:49.152Z,95163.94
2023-03-25T03:33:04.460Z,95168.22
2023-03-25T03:35:57.743Z,95169.06
2023-03-25T03:38:48.110Z,95172.69
2023-03-25T03:41:37.985Z,95173.88
2023-03-25T03:44:29.952Z,95171.59
2023-03-25T03:47:19.906Z,95177.09
2023-03-25T03:50:09.446Z,95182.88
2023-03-25T03:53:11.107Z,95172.53
2023-03-25T03:56:09.580Z,95179.53
2023-03-25T03:58:59.510Z,95175.81
2023-03-25T04:01:48.071Z,95182.50
2023-03-25T04:04:35.020Z,95177.13
2023-03-25T04:07:38.879Z,95178.41
2023-03-25T04:10:40.236Z,95187.47
2023-03-25T04:13:34.357Z,95183.09
2023-03-25T04:16:20.364Z,95192.66
2023-03-25T04:19:06.619Z,95192.06
2023-03-25T04:21:52.572Z,95193.06
2023-03-25T04:24:41.713Z,95191.63
2023-03-25T04:27:29.824Z,95183.75
2023-03-25T04:30:19.534Z,95187.53
2023-03-25T04:33:06.346Z,95188.63
2023-03-25T04:35:53.086Z,95183.25
2023-03-25T04:38:40.758Z,95186.25
2023-03-25T04:41:28.843Z,95185.44
2023-03-25T04:44:14.975Z,95188.13
2023-03-25T04:47:01.986Z,95189.88
2023-03-25T04:49:48.145Z,95186.66
2023-03-25T04:52:34.629Z,95186.06
2023-03-25T04:55:21.395Z,95195.63
2023-03-25T04:58:07.715Z,95196.13
2023-03-25T05:00:54.103Z,95189.13
2023-03-25T05:03:40.258Z,95194.03
2023-03-25T05:06:26.383Z,95197.81
2023-03-25T05:09:15.771Z,95189.66
2023-03-25T05:12:01.811Z,95201.13
2023-03-25T05:14:47.583Z,95206.19
2023-03-25T05:17:33.365Z,95208.59
2023-03-25T05:20:19.118Z,95194.03
2023-03-25T05:23:05.613Z,95200.41
2023-03-25T05:25:51.828Z,95200.13
2023-03-25T05:28:38.514Z,95205.22
2023-03-25T05:31:24.502Z,95202.00
2023-03-25T05:34:10.174Z,95204.88
2023-03-25T05:36:58.198Z,95202.97
2023-03-25T05:39:45.721Z,95206.19
2023-03-25T05:42:33.251Z,95204.28
2023-03-25T05:45:19.250Z,95190.63
2023-03-25T05:48:05.445Z,95205.59
2023-03-25T05:50:51.222Z,95202.59
2023-03-25T05:53:37.686Z,95202.75
2023-03-25T05:56:24.405Z,95198.38
2023-03-25T05:59:10.701Z,95192.38
2023-03-25T06:01:56.558Z,95201.94
2023-03-25T06:04:42.902Z,95198.94
2023-03-25T06:07:28.488Z,95201.34
2023-03-25T06:10:18.058Z,95192.34
2023-03-25T06:13:03.962Z,95198.44
2023-03-25T06:15:49.890Z,95195.94
2023-03-25T06:18:37.027Z,95190.53
2023-03-25T06:21:23.979Z,95194.91
2023-03-25T06:24:09.710Z,95191.47
2023-03-25T06:26:55.374Z,95197.59
2023-03-25T06:29:43.801Z,95192.75
2023-03-25T06:32:30.964Z,95185.31
2023-03-25T06:35:19.860Z,95190.59
2023-03-25T06:38:05.808Z,95191.06
2023-03-25T06:41:07.958Z,95194.56
2023-03-25T06:43:53.854Z,95202.53
2023-03-25T06:47:02.522Z,95210.19
2023-03-25T06:50:09.002Z,95203.91
2023-03-25T06:52:54.601Z,95206.19
2023-03-25T06:55:41.350Z,95205.31
2023-03-25T06:58:34.834Z,95214.75
2023-03-25T07:01:21.923Z,95210.84
2023-03-25T07:04:07.520Z,95202.94
2023-03-25T07:06:54.669Z,95216.97
2023-03-25T07:09:41.704Z,95217.63
2023-03-25T07:12:27.388Z,95217.16
2023-03-25T07:15:13.203Z,95220.50
2023-03-25T07:18:01.270Z,95204.44
2023-03-25T07:20:46.957Z,95199.16
2023-03-25T07:23:32.683Z,95192.78
2023-03-25T07:26:18.557Z,95190.38
2023-03-25T07:29:04.405Z,95190.66
2023-03-25T07:31:50.121Z,95192.72
2023-03-25T07:34:36.244Z,95170.13
2023-03-25T07:37:22.131Z,95182.19
2023-03-25T07:40:08.479Z,95190.94
2023-03-25T07:42:54.319Z,95188.88
2023-03-25T07:45:43.731Z,95189.19
2023-03-25T07:48:30.479Z,95190.91
2023-03-25T07:51:16.453Z,95196.47
2023-03-25T07:54:05.513Z,95187.72
2023-03-25T07:56:52.931Z,95182.75
2023-03-25T07:59:39.416Z,95180.34
2023-03-25T08:02:25.332Z,95182.19
2023-03-25T08:05:11.049Z,95185.84
2023-03-25T08:08:00.355Z,95178.19
2023-03-25T08:10:48.197Z,95178.97
2023-03-25T08:13:34.113Z,95176.72
2023-03-25T08:16:19.678Z,95168.28
2023-03-25T08:19:05.371Z,95165.41
2023-03-25T08:22:03.627Z,95151.63
2023-03-25T08:24:50.436Z,95150.75
2023-03-25T08:27:37.051Z,95147.66
2023-03-25T08:30:26.189Z,95143.75
2023-03-25T08:33:11.937Z,95143.47
2023-03-25T08:35:57.988Z,95140.94
2023-03-25T08:38:43.714Z,95130.50
2023-03-25T08:41:29.366Z,95137.69
2023-03-25T08:44:15.474Z,95126.88
2023-03-25T08:47:01.575Z,95129.38
2023-03-25T08:49:47.402Z,95123.97
2023-03-25T08:52:33.055Z,95125.34
2023-03-25T08:55:18.721Z,95120.84
2023-03-25T08:58:06.367Z,95119.50
2023-03-25T09:00:55.736Z,95117.75
2023-03-25T09:03:42.287Z,95112.88
2023-03-25T09:06:28.174Z,95105.97
2023-03-25T09:09:13.751Z,95106.41
2023-03-25T09:11:59.722Z,95102.47
2023-03-25T09:14:45.944Z,95104.59
2023-03-25T09:17:31.974Z,95100.47
2023-03-25T09:20:18.769Z,95101.44
2023-03-25T09:23:04.518Z,95097.63
2023-03-25T09:25:50.389Z,95096.13
2023-03-25T09:28:36.402Z,95103.88
2023-03-25T09:31:23.422Z,95104.59
2023-03-25T09:34:09.368Z,95099.44
2023-03-25T09:36:55.818Z,95094.28
2023-03-25T09:39:41.680Z,95088.38
2023-03-25T09:42:41.629Z,95091.81
2023-03-25T09:45:37.265Z,95083.09
2023-03-25T09:48:40.531Z,95071.13
2023-03-25T09:51:36.616Z,95078.34
2023-03-25T09:54:28.856Z,95067.53
2023-03-25T09:57:18.667Z,95060.53
2023-03-25T10:00:07.119Z,95059.81
2023-03-25T10:03:33.108Z,95062.19
2023-03-25T10:06:20.903Z,95052.94
2023-03-25T10:09:12.935Z,95060.44
2023-03-25T10:12:23.557Z,95052.75
2023-03-25T10:15:18.213Z,95049.69
2023-03-25T10:18:33.997Z,95047.81
2023-03-25T10:21:50.339Z,95034.56
2023-03-25T10:24:51.990Z,95032.28
2023-03-25T10:27:49.628Z,95027.28
2023-03-25T10:30:41.794Z,95028.16
2023-03-25T10:33:42.434Z,95020.81
2023-03-25T10:36:38.318Z,95017.84
2023-03-25T10:39:25.572Z,95020.34
2023-03-25T10:42:30.666Z,95009.50
2023-03-25T10:45:18.297Z,95007.72
2023-03-25T10:48:14.883Z,94993.72
2023-03-25T10:51:08.489Z,95006.09
2023-03-25T10:53:55.430Z,95007.78
2023-03-25T10:56:45.704Z,95001.63
2023-03-25T10:59:38.235Z,94996.66
2023-03-25T11:02:26.109Z,95004.22
2023-03-25T11:05:15.946Z,95001.22
2023-03-25T11:08:14.965Z,95000.13
2023-03-25T11:11:08.554Z,95001.38
2023-03-25T11:13:57.500Z,94994.38
2023-03-25T11:16:47.468Z,94991.25
2023-03-25T11:19:39.773Z,94991.25
2023-03-25T11:22:30.940Z,94983.41
2023-03-25T11:25:25.930Z,94988.06
2023-03-25T11:28:16.523Z,94989.97
2023-03-25T11:31:16.667Z,94984.31
2023-03-25T11:34:21.827Z,94982.22
2023-03-25T11:37:19.002Z,94981.25
2023-03-25T11:40:06.785Z,94979.59
2023-03-25T11:43:00.473Z,94975.53
2023-03-25T11:45:46.796Z,94980.94
2023-03-25T11:48:37.336Z,94976.13
2023-03-25T11:51:26.122Z,94970.63
2023-03-25T11:54:14.763Z,94966.25
2023-03-25T11:57:04.354Z,94961.94
2023-03-25T12:00:01.118Z,94956.47
2023-03-25T12:02:47.171Z,94950.25
2023-03-25T12:05:34.120Z,94947.56
2023-03-25T12:08:22.763Z,94943.94
2023-03-25T12:11:16.925Z,94931.00
2023-03-25T12:14:10.220Z,94939.69
2023-03-25T12:17:18.235Z,94940.66
2023-03-25T12:20:22.605Z,94924.28
2023-03-25T12:23:28.894Z,94914.69
2023-03-25T12:26:19.587Z,94917.16
2023-03-25T12:29:32.685Z,94908.69
2023-03-25T12:32:53.635Z,94904.09
2023-03-25T12:35:49.975Z,94897.47
2023-03-25T12:39:00.346Z,94882.63
2023-03-25T12:42:13.309Z,94887.31
2023-03-25T12:45:10.139Z,94878.19
2023-03-25T12:48:09.835Z,94870.25
2023-03-25T12:51:01.877Z,94866.63
2023-03-25T12:54:17.186Z,94850.66
2023-03-25T12:57:06.170Z,94861.56
2023-03-25T13:00:09.340Z,94841.59
2023-03-25T13:03:40.317Z,94838.59
2023-03-25T13:06:43.924Z,94826.94
2023-03-25T13:09:30.109Z,94827.25
2023-03-25T13:12:49.745Z,94824.50
2023-03-25T13:15:35.694Z,94813.44
2023-03-25T13:18:26.348Z,94803.19
2023-03-25T13:21:33.229Z,94804.66
2023-03-25T13:24:25.142Z,94798.06
2023-03-25T13:27:12.992Z,94793.38
2023-03-25T13:30:00.414Z,94782.63
2023-03-25T13:32:50.629Z,94764.72
2023-03-25T13:35:42.008Z,94760.22
2023-03-25T13:38:58.264Z,94763.75
2023-03-25T13:41:51.795Z,94763.38
2023-03-25T13:44:40.320Z,94743.72
2023-03-25T13:47:37.582Z,94737.75
2023-03-25T13:50:29.119Z,94743.59
2023-03-25T13:53:38.219Z,94739.25
2023-03-25T13:56:27.351Z,94727.09
2023-03-25T13:59:28.268Z,94726.84
2023-03-25T14:02:52.431Z,94718.25
2023-03-25T14:06:07.956Z,94720.91
2023-03-25T14:09:18.104Z,94716.19
2023-03-25T14:12:09.801Z,94725.53
2023-03-25T14:15:06.763Z,94712.50
2023-03-25T14:17:54.506Z,94709.47
2023-03-25T14:20:41.845Z,94709.38
2023-03-25T14:23:31.303Z,94704.41
2023-03-25T14:26:18.127Z,94707.03
2023-03-25T14:29:10.045Z,94701.97
2023-03-25T14:32:02.102Z,94684.03
2023-03-25T14:34:51.900Z,94687.44
2023-03-25T14:37:41.963Z,94683.09
2023-03-25T14:40:50.812Z,94677.13
2023-03-25T14:43:53.984Z,94673.41
2023-03-25T14:46:46.434Z,94669.00
2023-03-25T14:50:04.999Z,94674.75
2023-03-25T14:52:56.445Z,94670.09
2023-03-25T14:55:45.266Z,94668.38
2023-03-25T14:58:31.853Z,94660.00
2023-03-25T15:01:20.835Z,94654.19
2023-03-25T15:04:19.320Z,94664.25
2023-03-25T15:07:11.651Z,94659.94
2023-03-25T15:09:59.242Z,94654.16
2023-03-25T15:12:53.093Z,94646.66
2023-03-25T15:15:45.129Z,94646.16
2023-03-25T15:18:37.587Z,94631.09
2023-03-25T15:21:24.682Z,94630.91
2023-03-25T15:24:12.150Z,94634.97
2023-03-25T15:27:04.447Z,94627.94
2023-03-25T15:30:12.443Z,94639.00
2023-03-25T15:32:58.543Z,94636.66
2023-03-25T15:36:16.021Z,94638.28
2023-03-25T15:39:40.534Z,94644.97
2023-03-25T15:42:45.354Z,94644.22
2023-03-25T15:45:34.194Z,94648.50
2023-03-25T15:48:27.566Z,94642.22
2023-03-25T15:51:16.668Z,94632.03
2023-03-25T15:54:17.901Z,94624.19
2023-03-25T15:57:14.399Z,94621.84
2023-03-25T16:00:13.701Z,94616.34
2023-03-25T16:03:08.629Z,94619.88
2023-03-25T16:05:59.659Z,94625.75
2023-03-25T16:08:47.330Z,94623.41
2023-03-25T16:11:33.141Z,94620.28
2023-03-25T16:14:22.364Z,94617.13
2023-03-25T16:17:09.014Z,94610.84
2023-03-25T16:19:56.471Z,94623.00
2023-03-25T16:22:44.045Z,94620.22
2023-03-25T16:25:38.436Z,94636.63
2023-03-25T16:28:44.966Z,94635.03
2023-03-25T16:31:34.947Z,94630.25
2023-03-25T16:34:21.517Z,94632.94
2023-03-25T16:37:07.976Z,94630.91
2023-03-25T16:39:55.693Z,94641.00
2023-03-25T16:42:41.511Z,94637.78
2023-03-25T16:45:27.196Z,94632.97
2023-03-25T16:48:27.106Z,94655.19
2023-03-25T16:51:22.041Z,94651.22
2023-03-25T16:54:13.311Z,94647.63
2023-03-25T16:57:01.077Z,94651.06
2023-03-25T16:59:47.920Z,94649.06
2023-03-25T17:02:42.969Z,94664.25
2023-03-25T17:05:30.048Z,94656.72
2023-03-25T17:08:18.402Z,94661.69
2023-03-25T17:11:04.409Z,94662.81
2023-03-25T17:13:52.733Z,94668.22
2023-03-25T17:16:38.842Z,94671.63
2023-03-25T17:19:26.794Z,94686.78
2023-03-25T17:22:16.620Z,94691.31
2023-03-25T17:25:27.510Z,94684.56
2023-03-25T17:28:58.172Z,94687.97
2023-03-25T17:31:43.949Z,94693.72
2023-03-25T17:34:32.234Z,94696.34
2023-03-25T17:37:19.181Z,94704.00
2023-03-25T17:40:11.676Z,94701.59
2023-03-25T17:42:58.859Z,94703.84
2023-03-25T17:45:47.057Z,94712.41
2023-03-25T17:48:33.309Z,94724.81
2023-03-25T17:51:20.760Z,94738.47
2023-03-25T17:54:06.719Z,94736.47
2023-03-25T17:56:52.908Z,94748.53
2023-03-25T17:59:38.757Z,94746.91
2023-03-25T18:02:24.560Z,94752.75
2023-03-25T18:05:11.055Z,94753.47
2023-03-25T18:07:58.370Z,94756.53
2023-03-25T18:10:44.278Z,94753.97
2023-03-25T18:13:30.036Z,94770.34
2023-03-25T18:16:16.816Z,94784.72
2023-03-25T18:19:02.895Z,94778.72
2023-03-25T18:21:48.948Z,94785.25
2023-03-25T18:24:35.068Z,94794.13
2023-03-25T18:27:25.579Z,94809.63
2023-03-25T18:30:39.168Z,94812.91
2023-03-25T18:33:25.601Z,94805.84
2023-03-25T18:36:11.968Z,94808.34
2023-03-25T18:38:57.869Z,94818.25
2023-03-25T18:41:44.172Z,94820.00
2023-03-25T18:44:30.920Z,94824.84
2023-03-25T18:47:17.098Z,94819.13
2023-03-25T18:50:13.109Z,94822.81
2023-03-25T18:52:59.737Z,94832.06
2023-03-25T18:55:46.586Z,94832.28
2023-03-25T18:58:34.022Z,94834.81
2023-03-25T19:01:21.924Z,94845.56
2023-03-25T19:04:09.286Z,94849.25
2023-03-25T19:06:55.883Z,94861.53
2023-03-25T19:09:41.655Z,94868.41
2023-03-25T19:12:27.366Z,94866.63
2023-03-25T19:15:15.758Z,94878.94
2023-03-25T19:18:02.008Z,94876.38
2023-03-25T19:20:49.686Z,94877.72
2023-03-25T19:23:36.446Z,94886.13
2023-03-25T19:26:22.229Z,94886.72
2023-03-25T19:29:08.780Z,94882.59
2023-03-25T19:31:54.939Z,94884.09
2023-03-25T19:34:40.430Z,94876.88
2023-03-25T19:37:30.510Z,94884.47
2023-03-25T19:40:18.916Z,94881.31
2023-03-25T19:43:07.864Z,94891.31
2023-03-25T19:45:57.753Z,94893.81
2023-03-25T19:48:43.873Z,94897.44
2023-03-25T19:51:29.814Z,94895.88
2023-03-25T19:54:15.529Z,94900.63
2023-03-25T19:57:01.577Z,94902.63
2023-03-25T19:59:48.279Z,94898.34
2023-03-25T20:02:34.353Z,94908.50
2023-03-25T20:05:21.803Z,94907.63
2023-03-25T20:08:09.503Z,94913.06
2023-03-25T20:10:55.352Z,94901.19
2023-03-25T20:13:41.309Z,94912.19
2023-03-25T20:16:28.405Z,94905.84
2023-03-25T20:19:14.230Z,94903.84
2023-03-25T20:22:00.621Z,94907.22
2023-03-25T20:24:46.491Z,94906.31
2023-03-25T20:27:32.522Z,94913.13
2023-03-25T20:30:19.675Z,94917.66
2023-03-25T20:33:05.653Z,94914.41
2023-03-25T20:35:52.050Z,94927.09
2023-03-25T20:38:42.006Z,94939.69
2023-03-25T20:41:36.885Z,94937.00
2023-03-25T20:44:22.949Z,94953.09
2023-03-25T20:47:09.459Z,94964.84
2023-03-25T20:49:56.191Z,94977.06
2023-03-25T20:52:43.836Z,95018.00
2023-03-25T20:55:29.562Z,95003.41
2023-03-25T20:58:15.977Z,95006.22
2023-03-25T21:01:02.773Z,95020.66
2023-03-25T21:03:50.395Z,95033.75
2023-03-25T21:06:35.986Z,95047.97
2023-03-25T21:09:22.008Z,95030.34
2023-03-25T21:12:08.211Z,94999.00
2023-03-25T21:14:54.523Z,95041.13
2023-03-25T21:17:40.947Z,95046.66
2023-03-25T21:20:28.913Z,95052.59
2023-03-25T21:23:14.777Z,95062.97
2023-03-25T21:26:09.308Z,95065.44
2023-03-25T21:28:56.909Z,95079.16
2023-03-25T21:31:42.898Z,95082.75
2023-03-25T21:34:30.299Z,95078.50
2023-03-25T21:37:16.476Z,95110.91
2023-03-25T21:40:02.763Z,95106.78
2023-03-25T21:42:48.849Z,95119.22
2023-03-25T21:45:35.404Z,95102.66
2023-03-25T21:48:22.641Z,95117.63
2023-03-25T21:51:14.429Z,95115.09
2023-03-25T21:54:00.688Z,95082.50
2023-03-25T21:56:51.949Z,95097.38
2023-03-25T21:59:37.660Z,95092.47
2023-03-25T22:02:25.645Z,95084.50
2023-03-25T22:05:12.913Z,95083.09
2023-03-25T22:07:59.102Z,95090.72
2023-03-25T22:10:45.088Z,95085.16
2023-03-25T22:13:30.818Z,95077.34
2023-03-25T22:16:18.133Z,95078.47
2023-03-25T22:19:04.645Z,95073.50
2023-03-25T22:21:50.738Z,95063.91
2023-03-25T22:24:37.063Z,95075.84
2023-03-25T22:27:23.001Z,95065.00
2023-03-25T22:30:09.408Z,95063.53
2023-03-25T22:32:54.962Z,95051.13
2023-03-25T22:35:41.119Z,95053.50
2023-03-25T22:38:26.789Z,95047.44
2023-03-25T22:41:15.443Z,95045.50
2023-03-25T22:44:01.447Z,95048.53
2023-03-25T22:46:49.023Z,95047.28
2023-03-25T22:49:35.054Z,95053.50
2023-03-25T22:52:21.025Z,95050.19
2023-03-25T22:55:07.762Z,95070.28
2023-03-25T22:57:53.914Z,95067.75
2023-03-25T23:00:42.156Z,95064.44
2023-03-25T23:03:36.148Z,95062.69
2023-03-25T23:06:23.519Z,95072.59
2023-03-25T23:09:10.028Z,95075.47
2023-03-25T23:11:57.029Z,95085.22
2023-03-25T23:14:48.198Z,95077.78
2023-03-25T23:17:35.283Z,95064.13
2023-03-25T23:20:22.343Z,95083.09
2023-03-25T23:23:08.057Z,95089.31
2023-03-25T23:26:27.594Z,95083.78
2023-03-25T23:29:14.064Z,95090.03
2023-03-25T23:32:00.472Z,95098.13
2023-03-25T23:34:46.378Z,95096.88
2023-03-25T23:37:34.003Z,95105.78
2023-03-25T23:40:22.844Z,95119.50
2023-03-25T23:43:08.826Z,95110.44
2023-03-25T23:45:54.753Z,95100.56
2023-03-25T23:48:41.142Z,95121.06
2023-03-25T23:51:27.239Z,95126.09
2023-03-25T23:54:15.393Z,95133.59
2023-03-25T23:57:02.308Z,95141.81
2023-03-25T23:59:48.198Z,95157.72
